KAC1015 OKKK-HEAT
Flight info
| Callsign | KAC1015 |
|---|---|
| Flight time | 2h 53m |
| Altitude | 38000 |
| Route | DEKOB P517 KSB DCT HIL A788 HLF L604 LXR |
| Aircraft | A339/H-SADE1E2E3GHIJ3J5M1P2RWXY/LB2D1 |
Departure
| Time | 2026-04-20 11:42 |
|---|---|
| Airport | Kuwait International Airport (OKKK) |
Arrival
| Time | 2026-04-20 14:36 |
|---|---|
| Airport | Asyut International Airport (HEAT) |
| Time | Latitude | Longitude | Altitude | Speed | Heading |
|---|---|---|---|---|---|
| 2026-04-20 11:34 | 29.23894 | 47.97016 | 175 ft | 0 kts | 25° |
| 2026-04-20 11:34 | 29.23885 | 47.97011 | 175 ft | 3 kts | 25° |
| 2026-04-20 11:34 | 29.23866 | 47.97001 | 175 ft | 3 kts | 25° |
| 2026-04-20 11:34 | 29.23848 | 47.96992 | 175 ft | 3 kts | 25° |
| 2026-04-20 11:35 | 29.23829 | 47.96982 | 175 ft | 3 kts | 25° |
| 2026-04-20 11:35 | 29.23827 | 47.96975 | 175 ft | 3 kts | 5° |
| 2026-04-20 11:35 | 29.23812 | 47.96972 | 175 ft | 3 kts | 29° |
| 2026-04-20 11:35 | 29.23795 | 47.96961 | 175 ft | 3 kts | 41° |
| 2026-04-20 11:36 | 29.23781 | 47.96948 | 175 ft | 3 kts | 56° |
| 2026-04-20 11:36 | 29.23770 | 47.96929 | 175 ft | 3 kts | 69° |
| 2026-04-20 11:36 | 29.23764 | 47.96907 | 175 ft | 3 kts | 70° |
| 2026-04-20 11:36 | 29.23759 | 47.96894 | 175 ft | 1 kts | 65° |
| 2026-04-20 11:37 | 29.23758 | 47.96891 | 175 ft | 0 kts | 65° |
| 2026-04-20 11:38 | 29.19126 | 47.96159 | 218 ft | 0 kts | 335° |
| 2026-04-20 11:42 | 29.19273 | 47.96079 | 225 ft | 65 kts | 334° |
| 2026-04-20 11:42 | 29.19968 | 47.95701 | 218 ft | 150 kts | 336° |
| 2026-04-20 11:42 | 29.21093 | 47.95105 | 310 ft | 201 kts | 334° |
| 2026-04-20 11:42 | 29.22345 | 47.94473 | 1317 ft | 189 kts | 335° |
| 2026-04-20 11:43 | 29.23559 | 47.93883 | 2332 ft | 192 kts | 334° |
| 2026-04-20 11:43 | 29.24818 | 47.93242 | 3098 ft | 201 kts | 331° |
| 2026-04-20 11:43 | 29.26095 | 47.92577 | 3935 ft | 204 kts | 330° |
| 2026-04-20 11:43 | 29.27396 | 47.91869 | 4722 ft | 208 kts | 329° |
| 2026-04-20 11:44 | 29.28686 | 47.91140 | 5531 ft | 210 kts | 330° |
| 2026-04-20 11:44 | 29.30020 | 47.90400 | 6306 ft | 214 kts | 330° |
| 2026-04-20 11:44 | 29.31381 | 47.89662 | 7071 ft | 218 kts | 331° |
| 2026-04-20 11:44 | 29.32654 | 47.88749 | 7755 ft | 219 kts | 312° |
| 2026-04-20 11:45 | 29.33513 | 47.87335 | 8375 ft | 220 kts | 289° |
| 2026-04-20 11:45 | 29.33795 | 47.85606 | 9024 ft | 220 kts | 265° |
| 2026-04-20 11:45 | 29.33457 | 47.83974 | 9487 ft | 202 kts | 244° |
| 2026-04-20 11:45 | 29.32636 | 47.82660 | 8984 ft | 210 kts | 221° |
| 2026-04-20 11:46 | 29.31293 | 47.81796 | 8434 ft | 234 kts | 197° |
| 2026-04-20 11:46 | 29.29668 | 47.81690 | 8768 ft | 242 kts | 172° |
| 2026-04-20 11:46 | 29.28128 | 47.82377 | 9706 ft | 243 kts | 153° |
| 2026-04-20 11:46 | 29.26631 | 47.83668 | 9495 ft | 286 kts | 144° |
| 2026-04-20 11:47 | 29.24823 | 47.84674 | 9985 ft | 289 kts | 167° |
| 2026-04-20 11:47 | 29.22956 | 47.85096 | 10588 ft | 290 kts | 171° |
| 2026-04-20 11:47 | 29.20971 | 47.85594 | 11224 ft | 292 kts | 170° |
| 2026-04-20 11:47 | 29.18995 | 47.86106 | 11879 ft | 294 kts | 170° |
| 2026-04-20 11:48 | 29.16968 | 47.86781 | 12136 ft | 314 kts | 165° |
| 2026-04-20 11:48 | 29.14865 | 47.87685 | 12308 ft | 334 kts | 162° |
| 2026-04-20 11:48 | 29.12652 | 47.88729 | 12586 ft | 347 kts | 161° |
| 2026-04-20 11:48 | 29.10425 | 47.89802 | 13120 ft | 351 kts | 161° |
| 2026-04-20 11:49 | 29.08146 | 47.90889 | 13642 ft | 356 kts | 162° |
| 2026-04-20 11:49 | 29.05846 | 47.91974 | 14186 ft | 359 kts | 162° |
| 2026-04-20 11:49 | 29.03516 | 47.93062 | 14726 ft | 363 kts | 163° |
| 2026-04-20 11:49 | 29.01155 | 47.94157 | 15226 ft | 367 kts | 164° |
| 2026-04-20 11:50 | 28.98769 | 47.95257 | 15731 ft | 371 kts | 164° |
| 2026-04-20 11:50 | 28.96395 | 47.96354 | 16227 ft | 374 kts | 165° |
| 2026-04-20 11:50 | 28.93911 | 47.97254 | 16665 ft | 372 kts | 173° |
| 2026-04-20 11:50 | 28.91391 | 47.97733 | 17155 ft | 368 kts | 181° |
| 2026-04-20 11:51 | 28.88809 | 47.97850 | 17603 ft | 368 kts | 186° |
| 2026-04-20 11:51 | 28.86264 | 47.97903 | 18111 ft | 370 kts | 186° |
| 2026-04-20 11:51 | 28.83670 | 47.97972 | 18564 ft | 374 kts | 186° |
| 2026-04-20 11:51 | 28.81056 | 47.98048 | 19104 ft | 375 kts | 186° |
| 2026-04-20 11:52 | 28.78441 | 47.98129 | 19536 ft | 379 kts | 185° |
| 2026-04-20 11:52 | 28.75812 | 47.98213 | 20000 ft | 381 kts | 185° |
| 2026-04-20 11:52 | 28.73179 | 47.98292 | 20444 ft | 382 kts | 186° |
| 2026-04-20 11:52 | 28.70546 | 47.97986 | 20854 ft | 376 kts | 199° |
| 2026-04-20 11:53 | 28.68087 | 47.97036 | 21313 ft | 369 kts | 210° |
| 2026-04-20 11:53 | 28.65909 | 47.95557 | 21715 ft | 367 kts | 219° |
| 2026-04-20 11:53 | 28.63820 | 47.93881 | 22117 ft | 370 kts | 219° |
| 2026-04-20 11:53 | 28.61678 | 47.92189 | 22576 ft | 373 kts | 219° |
| 2026-04-20 11:54 | 28.59531 | 47.90512 | 22950 ft | 377 kts | 219° |
| 2026-04-20 11:54 | 28.57370 | 47.88835 | 23351 ft | 381 kts | 218° |
| 2026-04-20 11:54 | 28.55165 | 47.87123 | 23780 ft | 383 kts | 218° |
| 2026-04-20 11:54 | 28.52974 | 47.85348 | 24191 ft | 384 kts | 222° |
| 2026-04-20 11:55 | 28.50983 | 47.83346 | 24566 ft | 384 kts | 228° |
| 2026-04-20 11:55 | 28.49121 | 47.81195 | 24962 ft | 387 kts | 228° |
| 2026-04-20 11:55 | 28.47206 | 47.78999 | 25367 ft | 389 kts | 228° |
| 2026-04-20 11:55 | 28.45299 | 47.76834 | 25755 ft | 393 kts | 227° |
| 2026-04-20 11:56 | 28.43349 | 47.74622 | 26134 ft | 395 kts | 227° |
| 2026-04-20 11:56 | 28.41413 | 47.72422 | 26509 ft | 398 kts | 227° |
| 2026-04-20 11:56 | 28.39437 | 47.70180 | 26889 ft | 401 kts | 227° |
| 2026-04-20 11:56 | 28.37474 | 47.67954 | 27249 ft | 403 kts | 227° |
| 2026-04-20 11:57 | 28.35467 | 47.65681 | 27604 ft | 406 kts | 227° |
| 2026-04-20 11:57 | 28.33474 | 47.63427 | 27948 ft | 409 kts | 226° |
| 2026-04-20 11:57 | 28.31445 | 47.61132 | 28300 ft | 412 kts | 226° |
| 2026-04-20 11:57 | 28.29402 | 47.58821 | 28658 ft | 414 kts | 226° |
| 2026-04-20 11:58 | 28.27365 | 47.56518 | 28988 ft | 417 kts | 226° |
| 2026-04-20 11:58 | 28.25291 | 47.54177 | 29341 ft | 419 kts | 226° |
| 2026-04-20 11:58 | 28.23256 | 47.51847 | 29625 ft | 421 kts | 229° |
| 2026-04-20 11:58 | 28.21486 | 47.49184 | 29961 ft | 423 kts | 238° |
| 2026-04-20 11:59 | 28.20178 | 47.46206 | 30266 ft | 427 kts | 248° |
| 2026-04-20 11:59 | 28.19360 | 47.42940 | 30660 ft | 429 kts | 258° |
| 2026-04-20 11:59 | 28.18856 | 47.39619 | 31090 ft | 430 kts | 258° |
| 2026-04-20 11:59 | 28.18331 | 47.36260 | 31435 ft | 431 kts | 258° |
| 2026-04-20 12:00 | 28.17799 | 47.32943 | 31833 ft | 431 kts | 258° |
| 2026-04-20 12:00 | 28.17252 | 47.29571 | 32176 ft | 433 kts | 258° |
| 2026-04-20 12:00 | 28.16709 | 47.26236 | 32514 ft | 433 kts | 258° |
| 2026-04-20 12:00 | 28.16163 | 47.22888 | 32771 ft | 434 kts | 258° |
| 2026-04-20 12:01 | 28.15613 | 47.19518 | 33070 ft | 434 kts | 258° |
| 2026-04-20 12:01 | 28.15065 | 47.16193 | 33271 ft | 435 kts | 258° |
| 2026-04-20 12:01 | 28.14507 | 47.12785 | 33472 ft | 435 kts | 258° |
| 2026-04-20 12:01 | 28.13960 | 47.09435 | 33739 ft | 433 kts | 259° |
| 2026-04-20 12:02 | 28.13409 | 47.06064 | 33995 ft | 432 kts | 259° |
| 2026-04-20 12:02 | 28.12867 | 47.02761 | 34320 ft | 428 kts | 259° |
| 2026-04-20 12:02 | 28.12317 | 46.99448 | 34594 ft | 426 kts | 259° |
| 2026-04-20 12:02 | 28.11772 | 46.96161 | 34945 ft | 422 kts | 259° |
| 2026-04-20 12:03 | 28.11230 | 46.92886 | 35242 ft | 419 kts | 259° |
| 2026-04-20 12:03 | 28.10698 | 46.89680 | 35539 ft | 414 kts | 259° |
| 2026-04-20 12:03 | 28.10171 | 46.86494 | 36079 ft | 406 kts | 259° |
| 2026-04-20 12:03 | 28.09660 | 46.83414 | 36762 ft | 395 kts | 260° |
| 2026-04-20 12:04 | 28.09158 | 46.80404 | 37447 ft | 385 kts | 260° |
| 2026-04-20 12:04 | 28.08662 | 46.77425 | 37836 ft | 382 kts | 261° |
| 2026-04-20 12:04 | 28.07679 | 46.71525 | 37915 ft | 380 kts | 261° |
| 2026-04-20 12:05 | 28.06703 | 46.65658 | 37916 ft | 380 kts | 261° |
| 2026-04-20 12:05 | 28.05721 | 46.59784 | 37916 ft | 380 kts | 261° |
| 2026-04-20 12:06 | 28.04749 | 46.53954 | 37914 ft | 378 kts | 261° |
| 2026-04-20 12:06 | 28.03768 | 46.48093 | 37923 ft | 379 kts | 261° |
| 2026-04-20 12:07 | 28.02783 | 46.42218 | 37885 ft | 384 kts | 260° |
| 2026-04-20 12:07 | 28.01777 | 46.36253 | 37890 ft | 385 kts | 260° |
| 2026-04-20 12:08 | 28.00771 | 46.30326 | 37887 ft | 385 kts | 260° |
| 2026-04-20 12:08 | 27.99766 | 46.24387 | 37891 ft | 385 kts | 260° |
| 2026-04-20 12:09 | 27.98754 | 46.18445 | 37887 ft | 385 kts | 259° |
| 2026-04-20 12:09 | 27.97745 | 46.12487 | 37890 ft | 385 kts | 260° |
| 2026-04-20 12:10 | 27.96749 | 46.06523 | 37889 ft | 385 kts | 260° |
| 2026-04-20 12:10 | 27.95745 | 46.00564 | 37891 ft | 386 kts | 260° |
| 2026-04-20 12:11 | 27.94740 | 45.94612 | 37893 ft | 386 kts | 260° |
| 2026-04-20 12:11 | 27.93730 | 45.88659 | 37890 ft | 388 kts | 260° |
| 2026-04-20 12:12 | 27.92708 | 45.82668 | 37889 ft | 392 kts | 260° |
| 2026-04-20 12:12 | 27.91839 | 45.77589 | 37888 ft | 395 kts | 260° |
| 2026-04-20 12:13 | 27.90799 | 45.71511 | 37888 ft | 396 kts | 260° |
| 2026-04-20 12:13 | 27.89748 | 45.65389 | 37890 ft | 396 kts | 260° |
| 2026-04-20 12:14 | 27.88696 | 45.59272 | 37886 ft | 397 kts | 260° |
| 2026-04-20 12:14 | 27.87785 | 45.53113 | 37888 ft | 396 kts | 264° |
| 2026-04-20 12:15 | 27.87160 | 45.46954 | 37889 ft | 396 kts | 263° |
| 2026-04-20 12:15 | 27.86520 | 45.40785 | 37880 ft | 395 kts | 263° |
| 2026-04-20 12:16 | 27.85885 | 45.34692 | 37878 ft | 381 kts | 263° |
| 2026-04-20 12:16 | 27.85268 | 45.28804 | 37877 ft | 377 kts | 263° |
| 2026-04-20 12:17 | 27.84648 | 45.22924 | 37876 ft | 377 kts | 263° |
| 2026-04-20 12:17 | 27.84024 | 45.17028 | 37878 ft | 376 kts | 263° |
| 2026-04-20 12:18 | 27.83401 | 45.11194 | 37881 ft | 375 kts | 263° |
| 2026-04-20 12:18 | 27.82776 | 45.05329 | 37882 ft | 374 kts | 263° |
| 2026-04-20 12:19 | 27.82152 | 44.99509 | 37878 ft | 373 kts | 263° |
| 2026-04-20 12:19 | 27.81532 | 44.93723 | 37880 ft | 372 kts | 263° |
| 2026-04-20 12:20 | 27.80905 | 44.87914 | 37875 ft | 371 kts | 263° |
| 2026-04-20 12:20 | 27.80274 | 44.82110 | 37883 ft | 371 kts | 263° |
| 2026-04-20 12:21 | 27.79645 | 44.76346 | 37876 ft | 369 kts | 263° |
| 2026-04-20 12:21 | 27.79023 | 44.70622 | 37881 ft | 368 kts | 263° |
| 2026-04-20 12:22 | 27.78390 | 44.64856 | 37883 ft | 367 kts | 263° |
| 2026-04-20 12:22 | 27.77759 | 44.59130 | 37880 ft | 368 kts | 263° |
| 2026-04-20 12:23 | 27.77127 | 44.53421 | 37876 ft | 366 kts | 263° |
| 2026-04-20 12:23 | 27.76494 | 44.47713 | 37877 ft | 367 kts | 263° |
| 2026-04-20 12:24 | 27.75857 | 44.42005 | 37882 ft | 366 kts | 262° |
| 2026-04-20 12:24 | 27.75220 | 44.36336 | 37879 ft | 366 kts | 263° |
| 2026-04-20 12:25 | 27.74579 | 44.30635 | 37878 ft | 366 kts | 263° |
| 2026-04-20 12:25 | 27.73939 | 44.24935 | 37882 ft | 365 kts | 262° |
| 2026-04-20 12:26 | 27.73299 | 44.19272 | 37874 ft | 365 kts | 263° |
| 2026-04-20 12:26 | 27.72656 | 44.13594 | 37880 ft | 364 kts | 262° |
| 2026-04-20 12:27 | 27.72007 | 44.07924 | 37880 ft | 363 kts | 262° |
| 2026-04-20 12:27 | 27.71365 | 44.02278 | 37876 ft | 364 kts | 262° |
| 2026-04-20 12:28 | 27.70713 | 43.96609 | 37877 ft | 364 kts | 262° |
| 2026-04-20 12:28 | 27.70057 | 43.90935 | 37879 ft | 364 kts | 262° |
| 2026-04-20 12:29 | 27.69402 | 43.85274 | 37880 ft | 364 kts | 262° |
| 2026-04-20 12:29 | 27.68746 | 43.79640 | 37880 ft | 364 kts | 262° |
| 2026-04-20 12:30 | 27.68088 | 43.73983 | 37882 ft | 364 kts | 262° |
| 2026-04-20 12:30 | 27.67426 | 43.68313 | 37890 ft | 364 kts | 262° |
| 2026-04-20 12:31 | 27.66764 | 43.62669 | 37886 ft | 363 kts | 262° |
| 2026-04-20 12:31 | 27.66097 | 43.57011 | 37889 ft | 363 kts | 262° |
| 2026-04-20 12:32 | 27.65428 | 43.51399 | 37897 ft | 363 kts | 262° |
| 2026-04-20 12:32 | 27.64762 | 43.45759 | 37896 ft | 363 kts | 262° |
| 2026-04-20 12:33 | 27.64094 | 43.40111 | 37897 ft | 363 kts | 262° |
| 2026-04-20 12:33 | 27.63422 | 43.34457 | 37904 ft | 363 kts | 262° |
| 2026-04-20 12:34 | 27.62743 | 43.28815 | 37906 ft | 363 kts | 262° |
| 2026-04-20 12:34 | 27.62065 | 43.23181 | 37906 ft | 363 kts | 262° |
| 2026-04-20 12:35 | 27.61377 | 43.17507 | 37906 ft | 363 kts | 262° |
| 2026-04-20 12:35 | 27.60692 | 43.11873 | 37906 ft | 364 kts | 262° |
| 2026-04-20 12:36 | 27.60007 | 43.06245 | 37906 ft | 364 kts | 262° |
| 2026-04-20 12:36 | 27.59314 | 43.00561 | 37906 ft | 364 kts | 262° |
| 2026-04-20 12:37 | 27.58624 | 42.94918 | 37906 ft | 364 kts | 262° |
| 2026-04-20 12:37 | 27.57933 | 42.89257 | 37915 ft | 364 kts | 262° |
| 2026-04-20 12:38 | 27.57240 | 42.83629 | 37916 ft | 364 kts | 262° |
| 2026-04-20 12:38 | 27.56540 | 42.77976 | 37916 ft | 364 kts | 262° |
| 2026-04-20 12:39 | 27.55490 | 42.69499 | 37916 ft | 364 kts | 261° |
| 2026-04-20 12:40 | 27.54787 | 42.63858 | 37916 ft | 364 kts | 261° |
| 2026-04-20 12:40 | 27.54077 | 42.58199 | 37925 ft | 365 kts | 261° |
| 2026-04-20 12:41 | 27.53367 | 42.52542 | 37920 ft | 365 kts | 261° |
| 2026-04-20 12:41 | 27.52657 | 42.46875 | 37926 ft | 365 kts | 261° |
| 2026-04-20 12:42 | 27.51946 | 42.41235 | 37926 ft | 364 kts | 261° |
| 2026-04-20 12:42 | 27.51225 | 42.35581 | 37924 ft | 364 kts | 261° |
| 2026-04-20 12:43 | 27.50505 | 42.29952 | 37934 ft | 364 kts | 261° |
| 2026-04-20 12:43 | 27.49783 | 42.24307 | 37934 ft | 364 kts | 261° |
| 2026-04-20 12:44 | 27.49064 | 42.18662 | 37934 ft | 364 kts | 261° |
| 2026-04-20 12:44 | 27.48343 | 42.13049 | 37935 ft | 364 kts | 261° |
| 2026-04-20 12:45 | 27.47615 | 42.07390 | 37934 ft | 364 kts | 261° |
| 2026-04-20 12:45 | 27.46889 | 42.01780 | 37935 ft | 364 kts | 261° |
| 2026-04-20 12:46 | 27.46272 | 41.97033 | 37934 ft | 364 kts | 260° |
| 2026-04-20 12:46 | 27.45536 | 41.91394 | 37934 ft | 363 kts | 260° |
| 2026-04-20 12:47 | 27.44799 | 41.85748 | 37935 ft | 363 kts | 261° |
| 2026-04-20 12:47 | 27.44069 | 41.80156 | 37934 ft | 363 kts | 261° |
| 2026-04-20 12:48 | 27.43333 | 41.74529 | 37934 ft | 363 kts | 260° |
| 2026-04-20 12:48 | 27.42260 | 41.68994 | 37933 ft | 363 kts | 255° |
| 2026-04-20 12:49 | 27.40618 | 41.63592 | 37935 ft | 364 kts | 250° |
| 2026-04-20 12:49 | 27.38547 | 41.58395 | 37933 ft | 365 kts | 248° |
| 2026-04-20 12:50 | 27.36470 | 41.53197 | 37935 ft | 365 kts | 249° |
| 2026-04-20 12:50 | 27.34394 | 41.48002 | 37935 ft | 365 kts | 249° |
| 2026-04-20 12:51 | 27.32316 | 41.42812 | 37934 ft | 364 kts | 249° |
| 2026-04-20 12:51 | 27.30227 | 41.37617 | 37935 ft | 364 kts | 249° |
| 2026-04-20 12:52 | 27.28144 | 41.32429 | 37935 ft | 364 kts | 249° |
| 2026-04-20 12:52 | 27.26053 | 41.27227 | 37934 ft | 364 kts | 249° |
| 2026-04-20 12:53 | 27.23975 | 41.22063 | 37934 ft | 364 kts | 249° |
| 2026-04-20 12:53 | 27.21893 | 41.16903 | 37935 ft | 364 kts | 249° |
| 2026-04-20 12:54 | 27.19795 | 41.11712 | 37936 ft | 364 kts | 249° |
| 2026-04-20 12:54 | 27.17705 | 41.06542 | 37934 ft | 364 kts | 249° |
| 2026-04-20 12:55 | 27.15605 | 41.01357 | 37933 ft | 364 kts | 249° |
| 2026-04-20 12:55 | 27.13513 | 40.96203 | 37926 ft | 364 kts | 249° |
| 2026-04-20 12:56 | 27.11415 | 40.91036 | 37934 ft | 362 kts | 249° |
| 2026-04-20 12:56 | 27.09321 | 40.85877 | 37934 ft | 363 kts | 249° |
| 2026-04-20 12:57 | 27.07215 | 40.80704 | 37934 ft | 363 kts | 249° |
| 2026-04-20 12:57 | 27.05117 | 40.75551 | 37936 ft | 364 kts | 249° |
| 2026-04-20 12:58 | 27.03015 | 40.70393 | 37935 ft | 363 kts | 249° |
| 2026-04-20 12:58 | 27.01265 | 40.66112 | 37934 ft | 363 kts | 249° |
| 2026-04-20 12:59 | 26.99158 | 40.60958 | 37928 ft | 363 kts | 249° |
| 2026-04-20 12:59 | 26.97056 | 40.55815 | 37925 ft | 364 kts | 249° |
| 2026-04-20 13:00 | 26.94944 | 40.50664 | 37923 ft | 364 kts | 249° |
| 2026-04-20 13:00 | 26.92813 | 40.45485 | 37922 ft | 364 kts | 249° |
| 2026-04-20 13:01 | 26.90706 | 40.40355 | 37923 ft | 364 kts | 249° |
| 2026-04-20 13:01 | 26.88574 | 40.35173 | 37926 ft | 364 kts | 249° |
| 2026-04-20 13:02 | 26.86465 | 40.30055 | 37922 ft | 364 kts | 249° |
| 2026-04-20 13:02 | 26.84332 | 40.24896 | 37923 ft | 364 kts | 249° |
| 2026-04-20 13:03 | 26.82200 | 40.19724 | 37924 ft | 364 kts | 249° |
| 2026-04-20 13:03 | 26.80077 | 40.14588 | 37919 ft | 364 kts | 249° |
| 2026-04-20 13:04 | 26.77949 | 40.09448 | 37915 ft | 365 kts | 249° |
| 2026-04-20 13:04 | 26.75804 | 40.04276 | 37916 ft | 367 kts | 249° |
| 2026-04-20 13:05 | 26.73660 | 39.99109 | 37906 ft | 366 kts | 249° |
| 2026-04-20 13:05 | 26.71525 | 39.93972 | 37908 ft | 364 kts | 249° |
| 2026-04-20 13:06 | 26.69389 | 39.88838 | 37907 ft | 364 kts | 249° |
| 2026-04-20 13:06 | 26.67256 | 39.83720 | 37887 ft | 364 kts | 249° |
| 2026-04-20 13:07 | 26.65112 | 39.78580 | 37885 ft | 364 kts | 249° |
| 2026-04-20 13:07 | 26.62973 | 39.73455 | 37886 ft | 364 kts | 249° |
| 2026-04-20 13:08 | 26.60825 | 39.68327 | 37887 ft | 364 kts | 249° |
| 2026-04-20 13:08 | 26.58687 | 39.63225 | 37889 ft | 364 kts | 249° |
| 2026-04-20 13:09 | 26.56530 | 39.58072 | 37883 ft | 364 kts | 249° |
| 2026-04-20 13:09 | 26.54393 | 39.52979 | 37876 ft | 364 kts | 249° |
| 2026-04-20 13:10 | 26.52238 | 39.47865 | 37864 ft | 364 kts | 249° |
| 2026-04-20 13:10 | 26.50089 | 39.42752 | 37868 ft | 363 kts | 249° |
| 2026-04-20 13:11 | 26.47934 | 39.37631 | 37869 ft | 364 kts | 249° |
| 2026-04-20 13:11 | 26.45789 | 39.32519 | 37852 ft | 363 kts | 250° |
| 2026-04-20 13:12 | 26.44074 | 39.27281 | 37852 ft | 360 kts | 256° |
| 2026-04-20 13:12 | 26.43029 | 39.21837 | 37851 ft | 357 kts | 262° |
| 2026-04-20 13:13 | 26.42543 | 39.16332 | 37852 ft | 358 kts | 265° |
| 2026-04-20 13:13 | 26.42096 | 39.10809 | 37852 ft | 358 kts | 264° |
| 2026-04-20 13:14 | 26.41638 | 39.05282 | 37851 ft | 356 kts | 264° |
| 2026-04-20 13:14 | 26.41177 | 38.99788 | 37851 ft | 357 kts | 264° |
| 2026-04-20 13:15 | 26.40710 | 38.94308 | 37852 ft | 355 kts | 264° |
| 2026-04-20 13:15 | 26.40256 | 38.88823 | 37851 ft | 354 kts | 264° |
| 2026-04-20 13:16 | 26.39785 | 38.83318 | 37853 ft | 355 kts | 264° |
| 2026-04-20 13:16 | 26.39326 | 38.77888 | 37857 ft | 353 kts | 264° |
| 2026-04-20 13:17 | 26.38860 | 38.72428 | 37858 ft | 354 kts | 264° |
| 2026-04-20 13:17 | 26.38394 | 38.66964 | 37859 ft | 354 kts | 264° |
| 2026-04-20 13:18 | 26.37925 | 38.61532 | 37859 ft | 353 kts | 264° |
| 2026-04-20 13:18 | 26.37452 | 38.56069 | 37855 ft | 353 kts | 264° |
| 2026-04-20 13:19 | 26.36980 | 38.50653 | 37859 ft | 351 kts | 264° |
| 2026-04-20 13:19 | 26.36505 | 38.45229 | 37861 ft | 351 kts | 264° |
| 2026-04-20 13:20 | 26.36030 | 38.39812 | 37861 ft | 351 kts | 264° |
| 2026-04-20 13:20 | 26.35555 | 38.34419 | 37862 ft | 351 kts | 264° |
| 2026-04-20 13:21 | 26.35074 | 38.29010 | 37859 ft | 350 kts | 264° |
| 2026-04-20 13:21 | 26.34597 | 38.23620 | 37859 ft | 350 kts | 264° |
| 2026-04-20 13:22 | 26.34114 | 38.18237 | 37861 ft | 350 kts | 264° |
| 2026-04-20 13:22 | 26.33629 | 38.12837 | 37864 ft | 350 kts | 264° |
| 2026-04-20 13:23 | 26.33142 | 38.07445 | 37859 ft | 350 kts | 264° |
| 2026-04-20 13:23 | 26.32655 | 38.02057 | 37855 ft | 350 kts | 264° |
| 2026-04-20 13:24 | 26.32159 | 37.96657 | 37848 ft | 350 kts | 264° |
| 2026-04-20 13:24 | 26.31668 | 37.91284 | 37847 ft | 348 kts | 264° |
| 2026-04-20 13:25 | 26.31174 | 37.85917 | 37858 ft | 349 kts | 264° |
| 2026-04-20 13:25 | 26.30678 | 37.80512 | 37850 ft | 349 kts | 264° |
| 2026-04-20 13:26 | 26.30183 | 37.75149 | 37852 ft | 350 kts | 264° |
| 2026-04-20 13:26 | 26.29683 | 37.69755 | 37852 ft | 350 kts | 264° |
| 2026-04-20 13:27 | 26.29178 | 37.64352 | 37850 ft | 350 kts | 264° |
| 2026-04-20 13:27 | 26.28678 | 37.58985 | 37851 ft | 350 kts | 264° |
| 2026-04-20 13:28 | 26.28170 | 37.53583 | 37836 ft | 350 kts | 264° |
| 2026-04-20 13:28 | 26.27663 | 37.48221 | 37840 ft | 350 kts | 264° |
| 2026-04-20 13:29 | 26.27152 | 37.42804 | 37845 ft | 351 kts | 264° |
| 2026-04-20 13:29 | 26.26643 | 37.37427 | 37835 ft | 350 kts | 264° |
| 2026-04-20 13:30 | 26.26126 | 37.32020 | 37846 ft | 350 kts | 263° |
| 2026-04-20 13:30 | 26.25612 | 37.26641 | 37831 ft | 350 kts | 264° |
| 2026-04-20 13:31 | 26.25093 | 37.21221 | 37825 ft | 351 kts | 263° |
| 2026-04-20 13:31 | 26.24573 | 37.15846 | 37831 ft | 349 kts | 263° |
| 2026-04-20 13:32 | 26.24051 | 37.10461 | 37833 ft | 350 kts | 263° |
| 2026-04-20 13:32 | 26.23521 | 37.05058 | 37831 ft | 350 kts | 263° |
| 2026-04-20 13:33 | 26.23002 | 36.99700 | 37826 ft | 350 kts | 263° |
| 2026-04-20 13:33 | 26.22474 | 36.94323 | 37831 ft | 350 kts | 263° |
| 2026-04-20 13:34 | 26.21937 | 36.88908 | 37832 ft | 350 kts | 264° |
| 2026-04-20 13:34 | 26.21413 | 36.83562 | 37833 ft | 348 kts | 263° |
| 2026-04-20 13:35 | 26.20880 | 36.78180 | 37831 ft | 349 kts | 263° |
| 2026-04-20 13:35 | 26.20345 | 36.72791 | 37831 ft | 349 kts | 263° |
| 2026-04-20 13:36 | 26.19812 | 36.67438 | 37833 ft | 349 kts | 263° |
| 2026-04-20 13:36 | 26.19279 | 36.62106 | 37833 ft | 347 kts | 263° |
| 2026-04-20 13:37 | 26.18735 | 36.56737 | 37833 ft | 348 kts | 263° |
| 2026-04-20 13:37 | 26.18199 | 36.51396 | 37833 ft | 348 kts | 263° |
| 2026-04-20 13:38 | 26.17631 | 36.46041 | 37833 ft | 347 kts | 262° |
| 2026-04-20 13:38 | 26.16948 | 36.40752 | 37832 ft | 347 kts | 262° |
| 2026-04-20 13:39 | 26.16264 | 36.35428 | 37833 ft | 347 kts | 262° |
| 2026-04-20 13:39 | 26.15593 | 36.30131 | 37831 ft | 346 kts | 262° |
| 2026-04-20 13:40 | 26.14925 | 36.24813 | 37832 ft | 346 kts | 262° |
| 2026-04-20 13:40 | 26.14260 | 36.19527 | 37832 ft | 346 kts | 262° |
| 2026-04-20 13:41 | 26.13587 | 36.14246 | 37831 ft | 345 kts | 262° |
| 2026-04-20 13:41 | 26.12918 | 36.08966 | 37832 ft | 345 kts | 262° |
| 2026-04-20 13:42 | 26.12246 | 36.03677 | 37832 ft | 345 kts | 262° |
| 2026-04-20 13:42 | 26.11230 | 35.95727 | 37831 ft | 345 kts | 262° |
| 2026-04-20 13:43 | 26.10553 | 35.90456 | 37831 ft | 345 kts | 262° |
| 2026-04-20 13:43 | 26.09987 | 35.86070 | 37831 ft | 345 kts | 262° |
| 2026-04-20 13:44 | 26.09189 | 35.79896 | 37833 ft | 345 kts | 262° |
| 2026-04-20 13:44 | 26.08511 | 35.74623 | 37833 ft | 345 kts | 262° |
| 2026-04-20 13:45 | 26.07920 | 35.69316 | 37831 ft | 346 kts | 263° |
| 2026-04-20 13:45 | 26.07489 | 35.64893 | 37831 ft | 346 kts | 263° |
| 2026-04-20 13:46 | 26.06956 | 35.59570 | 37832 ft | 346 kts | 263° |
| 2026-04-20 13:46 | 26.06405 | 35.54251 | 37841 ft | 346 kts | 263° |
| 2026-04-20 13:47 | 26.05846 | 35.48934 | 37841 ft | 346 kts | 263° |
| 2026-04-20 13:47 | 26.05287 | 35.43600 | 37842 ft | 347 kts | 263° |
| 2026-04-20 13:48 | 26.04727 | 35.38304 | 37842 ft | 347 kts | 263° |
| 2026-04-20 13:48 | 26.04164 | 35.32968 | 37842 ft | 347 kts | 263° |
| 2026-04-20 13:49 | 26.03605 | 35.27629 | 37841 ft | 347 kts | 263° |
| 2026-04-20 13:49 | 26.03042 | 35.22319 | 37845 ft | 347 kts | 263° |
| 2026-04-20 13:50 | 26.02472 | 35.16991 | 37853 ft | 347 kts | 263° |
| 2026-04-20 13:50 | 26.01901 | 35.11689 | 37849 ft | 347 kts | 263° |
| 2026-04-20 13:51 | 26.01329 | 35.06354 | 37848 ft | 347 kts | 263° |
| 2026-04-20 13:51 | 26.00757 | 35.01024 | 37853 ft | 347 kts | 263° |
| 2026-04-20 13:52 | 26.00188 | 34.95694 | 37853 ft | 347 kts | 263° |
| 2026-04-20 13:52 | 25.99621 | 34.90373 | 37849 ft | 346 kts | 263° |
| 2026-04-20 13:53 | 25.99049 | 34.85095 | 37853 ft | 346 kts | 263° |
| 2026-04-20 13:53 | 25.98470 | 34.79768 | 37851 ft | 346 kts | 263° |
| 2026-04-20 13:54 | 25.97891 | 34.74478 | 37849 ft | 346 kts | 263° |
| 2026-04-20 13:54 | 25.97313 | 34.69165 | 37849 ft | 345 kts | 263° |
| 2026-04-20 13:55 | 25.96740 | 34.63891 | 37849 ft | 345 kts | 263° |
| 2026-04-20 13:55 | 25.96158 | 34.58612 | 37850 ft | 345 kts | 263° |
| 2026-04-20 13:56 | 25.95570 | 34.53306 | 37858 ft | 345 kts | 263° |
| 2026-04-20 13:56 | 25.94986 | 34.48044 | 37863 ft | 344 kts | 263° |
| 2026-04-20 13:57 | 25.94403 | 34.42779 | 37857 ft | 344 kts | 263° |
| 2026-04-20 13:57 | 25.93819 | 34.37520 | 37860 ft | 343 kts | 263° |
| 2026-04-20 13:58 | 25.93230 | 34.32250 | 37861 ft | 343 kts | 263° |
| 2026-04-20 13:58 | 25.92646 | 34.27007 | 37857 ft | 343 kts | 263° |
| 2026-04-20 13:59 | 25.92051 | 34.21745 | 37860 ft | 343 kts | 262° |
| 2026-04-20 13:59 | 25.91452 | 34.16494 | 37858 ft | 342 kts | 262° |
| 2026-04-20 14:00 | 25.90861 | 34.11243 | 37860 ft | 342 kts | 262° |
| 2026-04-20 14:00 | 25.90269 | 34.06014 | 37858 ft | 342 kts | 262° |
| 2026-04-20 14:01 | 25.89672 | 34.00784 | 37870 ft | 342 kts | 263° |
| 2026-04-20 14:01 | 25.89072 | 33.95553 | 37867 ft | 342 kts | 262° |
| 2026-04-20 14:02 | 25.88471 | 33.90324 | 37865 ft | 341 kts | 262° |
| 2026-04-20 14:02 | 25.87863 | 33.85088 | 37863 ft | 341 kts | 263° |
| 2026-04-20 14:03 | 25.87263 | 33.79888 | 37865 ft | 342 kts | 262° |
| 2026-04-20 14:03 | 25.86657 | 33.74650 | 37869 ft | 342 kts | 262° |
| 2026-04-20 14:04 | 25.86048 | 33.69418 | 37878 ft | 343 kts | 262° |
| 2026-04-20 14:04 | 25.85435 | 33.64176 | 37878 ft | 343 kts | 262° |
| 2026-04-20 14:05 | 25.84821 | 33.58929 | 37880 ft | 343 kts | 262° |
| 2026-04-20 14:05 | 25.84201 | 33.53652 | 37875 ft | 343 kts | 262° |
| 2026-04-20 14:06 | 25.83577 | 33.48401 | 37884 ft | 344 kts | 263° |
| 2026-04-20 14:06 | 25.82962 | 33.43157 | 37878 ft | 345 kts | 263° |
| 2026-04-20 14:07 | 25.82336 | 33.37891 | 37879 ft | 344 kts | 262° |
| 2026-04-20 14:07 | 25.81706 | 33.32634 | 37882 ft | 344 kts | 262° |
| 2026-04-20 14:08 | 25.81077 | 33.27361 | 37879 ft | 346 kts | 262° |
| 2026-04-20 14:08 | 25.80442 | 33.22070 | 37878 ft | 346 kts | 263° |
| 2026-04-20 14:09 | 25.79807 | 33.16760 | 37875 ft | 346 kts | 262° |
| 2026-04-20 14:09 | 25.79173 | 33.11481 | 37879 ft | 346 kts | 262° |
| 2026-04-20 14:10 | 25.78536 | 33.06200 | 37882 ft | 346 kts | 262° |
| 2026-04-20 14:10 | 25.77885 | 33.00860 | 37873 ft | 347 kts | 262° |
| 2026-04-20 14:11 | 25.77239 | 32.95563 | 37880 ft | 347 kts | 262° |
| 2026-04-20 14:11 | 25.76588 | 32.90258 | 37885 ft | 347 kts | 262° |
| 2026-04-20 14:12 | 25.75979 | 32.84983 | 37889 ft | 347 kts | 265° |
| 2026-04-20 14:12 | 25.76237 | 32.79631 | 37892 ft | 350 kts | 276° |
| 2026-04-20 14:13 | 25.77702 | 32.74406 | 37885 ft | 359 kts | 286° |
| 2026-04-20 14:13 | 25.80356 | 32.69596 | 37889 ft | 375 kts | 298° |
| 2026-04-20 14:14 | 25.83733 | 32.65150 | 37886 ft | 377 kts | 298° |
| 2026-04-20 14:14 | 25.87094 | 32.60678 | 37886 ft | 376 kts | 298° |
| 2026-04-20 14:15 | 25.90425 | 32.56222 | 37884 ft | 377 kts | 298° |
| 2026-04-20 14:15 | 25.93767 | 32.51752 | 37885 ft | 375 kts | 298° |
| 2026-04-20 14:16 | 25.97107 | 32.47275 | 37888 ft | 376 kts | 298° |
| 2026-04-20 14:16 | 26.00444 | 32.42802 | 37889 ft | 376 kts | 298° |
| 2026-04-20 14:17 | 26.03767 | 32.38341 | 37889 ft | 376 kts | 298° |
| 2026-04-20 14:17 | 26.07101 | 32.33863 | 37884 ft | 375 kts | 298° |
| 2026-04-20 14:18 | 26.10424 | 32.29388 | 37888 ft | 374 kts | 298° |
| 2026-04-20 14:18 | 26.13737 | 32.24932 | 37891 ft | 374 kts | 298° |
| 2026-04-20 14:19 | 26.17029 | 32.20494 | 37887 ft | 373 kts | 298° |
| 2026-04-20 14:19 | 26.20337 | 32.16034 | 37885 ft | 373 kts | 298° |
| 2026-04-20 14:20 | 26.23661 | 32.11550 | 37887 ft | 373 kts | 298° |
| 2026-04-20 14:20 | 26.26969 | 32.07077 | 37889 ft | 374 kts | 298° |
| 2026-04-20 14:21 | 26.30258 | 32.02628 | 37390 ft | 373 kts | 298° |
| 2026-04-20 14:21 | 26.31913 | 32.00380 | 36400 ft | 379 kts | 298° |
| 2026-04-20 14:21 | 26.33611 | 31.98063 | 35054 ft | 388 kts | 300° |
| 2026-04-20 14:22 | 26.35338 | 31.95708 | 33426 ft | 399 kts | 300° |
| 2026-04-20 14:22 | 26.37101 | 31.93306 | 31960 ft | 402 kts | 301° |
| 2026-04-20 14:22 | 26.38898 | 31.90875 | 30762 ft | 403 kts | 301° |
| 2026-04-20 14:22 | 26.40670 | 31.88483 | 29703 ft | 407 kts | 301° |
| 2026-04-20 14:23 | 26.42456 | 31.86066 | 29220 ft | 393 kts | 302° |
| 2026-04-20 14:23 | 26.44150 | 31.83784 | 29007 ft | 373 kts | 301° |
| 2026-04-20 14:23 | 26.45776 | 31.81591 | 28394 ft | 362 kts | 301° |
| 2026-04-20 14:23 | 26.47359 | 31.79429 | 27549 ft | 359 kts | 301° |
| 2026-04-20 14:24 | 26.48938 | 31.77265 | 26670 ft | 356 kts | 302° |
| 2026-04-20 14:24 | 26.50490 | 31.75142 | 25823 ft | 353 kts | 302° |
| 2026-04-20 14:24 | 26.52042 | 31.73024 | 24920 ft | 350 kts | 302° |
| 2026-04-20 14:24 | 26.53572 | 31.70936 | 24086 ft | 346 kts | 302° |
| 2026-04-20 14:25 | 26.55102 | 31.68849 | 23196 ft | 343 kts | 303° |
| 2026-04-20 14:25 | 26.56594 | 31.66815 | 22350 ft | 340 kts | 303° |
| 2026-04-20 14:25 | 26.58093 | 31.64772 | 21446 ft | 337 kts | 303° |
| 2026-04-20 14:25 | 26.59562 | 31.62768 | 20584 ft | 334 kts | 303° |
| 2026-04-20 14:26 | 26.61032 | 31.60754 | 19849 ft | 331 kts | 303° |
| 2026-04-20 14:26 | 26.62477 | 31.58772 | 19117 ft | 332 kts | 304° |
| 2026-04-20 14:26 | 26.63930 | 31.56786 | 18359 ft | 329 kts | 304° |
| 2026-04-20 14:26 | 26.65378 | 31.54807 | 17613 ft | 325 kts | 304° |
| 2026-04-20 14:27 | 26.66802 | 31.52858 | 16846 ft | 323 kts | 304° |
| 2026-04-20 14:27 | 26.68204 | 31.50935 | 16112 ft | 320 kts | 305° |
| 2026-04-20 14:27 | 26.69623 | 31.48991 | 15338 ft | 320 kts | 305° |
| 2026-04-20 14:27 | 26.71008 | 31.47095 | 14586 ft | 315 kts | 306° |
| 2026-04-20 14:28 | 26.72383 | 31.45215 | 13808 ft | 310 kts | 306° |
| 2026-04-20 14:28 | 26.73753 | 31.43335 | 13069 ft | 312 kts | 306° |
| 2026-04-20 14:28 | 26.75041 | 31.41565 | 12396 ft | 307 kts | 306° |
| 2026-04-20 14:28 | 26.76393 | 31.39715 | 11580 ft | 304 kts | 307° |
| 2026-04-20 14:29 | 26.77708 | 31.37910 | 10860 ft | 300 kts | 307° |
| 2026-04-20 14:29 | 26.79034 | 31.36072 | 10119 ft | 303 kts | 308° |
| 2026-04-20 14:29 | 26.80353 | 31.34256 | 9751 ft | 298 kts | 309° |
| 2026-04-20 14:29 | 26.81667 | 31.32466 | 9601 ft | 301 kts | 308° |
| 2026-04-20 14:30 | 26.82996 | 31.30641 | 9491 ft | 300 kts | 308° |
| 2026-04-20 14:30 | 26.84302 | 31.28841 | 9031 ft | 298 kts | 309° |
| 2026-04-20 14:30 | 26.85595 | 31.27059 | 8395 ft | 293 kts | 309° |
| 2026-04-20 14:30 | 26.86881 | 31.25287 | 7573 ft | 289 kts | 309° |
| 2026-04-20 14:31 | 26.87720 | 31.24131 | 7052 ft | 284 kts | 309° |
| 2026-04-20 14:31 | 26.89298 | 31.21934 | 6704 ft | 258 kts | 309° |
| 2026-04-20 14:31 | 26.90030 | 31.20930 | 6593 ft | 242 kts | 310° |
| 2026-04-20 14:31 | 26.91062 | 31.19522 | 6409 ft | 221 kts | 309° |
| 2026-04-20 14:32 | 26.91985 | 31.18248 | 6201 ft | 207 kts | 310° |
| 2026-04-20 14:32 | 26.92889 | 31.17008 | 5846 ft | 207 kts | 310° |
| 2026-04-20 14:32 | 26.93811 | 31.15748 | 5225 ft | 212 kts | 309° |
| 2026-04-20 14:32 | 26.94783 | 31.14442 | 4473 ft | 219 kts | 311° |
| 2026-04-20 14:33 | 26.95697 | 31.13206 | 4234 ft | 198 kts | 310° |
| 2026-04-20 14:33 | 26.96586 | 31.12019 | 3895 ft | 197 kts | 311° |
| 2026-04-20 14:33 | 26.97463 | 31.10841 | 3661 ft | 195 kts | 311° |
| 2026-04-20 14:33 | 26.98322 | 31.09691 | 3435 ft | 195 kts | 311° |
| 2026-04-20 14:34 | 26.99192 | 31.08515 | 3206 ft | 194 kts | 311° |
| 2026-04-20 14:34 | 27.00023 | 31.07408 | 3004 ft | 181 kts | 312° |
| 2026-04-20 14:34 | 27.00832 | 31.06328 | 2654 ft | 185 kts | 308° |
| 2026-04-20 14:34 | 27.01676 | 31.05177 | 2332 ft | 192 kts | 306° |
| 2026-04-20 14:35 | 27.02540 | 31.04017 | 1767 ft | 199 kts | 308° |
| 2026-04-20 14:35 | 27.03405 | 31.02872 | 1528 ft | 180 kts | 313° |
| 2026-04-20 14:35 | 27.04188 | 31.01807 | 1297 ft | 176 kts | 314° |
| 2026-04-20 14:35 | 27.04965 | 31.00745 | 829 ft | 179 kts | 311° |
| 2026-04-20 14:36 | 27.05682 | 31.00167 | 745 ft | 53 kts | 73° |
| 2026-04-20 14:36 | 27.05745 | 31.00146 | 749 ft | 0 kts | 73° |
| 2026-04-20 14:36 | 27.05745 | 31.00147 | 752 ft | 0 kts | 72° |
| 2026-04-20 14:37 | 27.05739 | 31.00263 | 753 ft | 18 kts | 127° |
| 2026-04-20 14:37 | 27.05656 | 31.00293 | 750 ft | 10 kts | 165° |
| 2026-04-20 14:37 | 27.05602 | 31.00314 | 754 ft | 8 kts | 148° |
| 2026-04-20 14:37 | 27.05562 | 31.00360 | 751 ft | 9 kts | 127° |
| 2026-04-20 14:38 | 27.05376 | 31.00600 | 753 ft | 86 kts | 130° |
| 2026-04-20 14:38 | 27.05078 | 31.01088 | 765 ft | 39 kts | 80° |
| 2026-04-20 14:38 | 27.05152 | 31.01228 | 766 ft | 4 kts | 6° |
| 2026-04-20 14:38 | 27.05153 | 31.01227 | 766 ft | 0 kts | 2° |
| 2026-04-20 14:39 | 27.05156 | 31.01224 | 766 ft | 2 kts | 348° |
| 2026-04-20 14:39 | 27.05162 | 31.01216 | 765 ft | 0 kts | 327° |
| 2026-04-20 14:39 | 27.05168 | 31.01216 | 765 ft | 2 kts | 340° |
| 2026-04-20 14:39 | 27.05178 | 31.01220 | 765 ft | 1 kts | 9° |
| 2026-04-20 14:40 | 27.05188 | 31.01229 | 765 ft | 0 kts | 37° |
| 2026-04-20 14:40 | 27.05198 | 31.01237 | 765 ft | 0 kts | 40° |